createdAt,value
2023-04-10T00:02:55.347Z,101134.30
2023-04-10T00:07:58.347Z,101128.18
2023-04-10T00:13:03.615Z,101127.42
2023-04-10T00:18:06.628Z,101124.41
2023-04-10T00:23:09.861Z,101121.10
2023-04-10T00:28:12.826Z,101122.66
2023-04-10T00:33:16.044Z,101120.25
2023-04-10T00:38:19.048Z,101122.98
2023-04-10T00:43:22.363Z,101122.54
2023-04-10T00:48:26.361Z,101120.97
2023-04-10T00:53:30.043Z,101124.44
2023-04-10T00:58:33.018Z,101118.35
2023-04-10T01:03:37.349Z,101116.48
2023-04-10T01:09:06.406Z,101112.02
2023-04-10T01:14:09.274Z,101107.70
2023-04-10T01:19:12.285Z,101108.73
2023-04-10T01:24:24.989Z,101103.86
2023-04-10T01:29:31.060Z,101105.61
2023-04-10T01:34:45.151Z,101110.81
2023-04-10T01:39:54.584Z,101116.27
2023-04-10T01:44:58.769Z,101116.56
2023-04-10T01:50:03.707Z,101123.08
2023-04-10T01:55:08.839Z,101126.91
2023-04-10T02:00:12.962Z,101126.04
2023-04-10T02:05:16.988Z,101126.23
2023-04-10T02:10:31.655Z,101123.16
2023-04-10T02:15:36.630Z,101124.30
2023-04-10T02:20:39.671Z,101127.81
2023-04-10T02:25:42.581Z,101129.45
2023-04-10T02:30:45.778Z,101126.38
2023-04-10T02:35:48.819Z,101127.23
2023-04-10T02:40:51.788Z,101125.63
2023-04-10T02:45:55.110Z,101121.35
2023-04-10T02:50:58.722Z,101128.19
2023-04-10T02:56:02.638Z,101126.95
2023-04-10T03:01:09.345Z,101124.06
2023-04-10T03:06:12.462Z,101123.70
2023-04-10T03:11:15.563Z,101123.00
2023-04-10T03:16:19.076Z,101127.58
2023-04-10T03:21:22.297Z,101129.30
2023-04-10T03:26:25.608Z,101134.52
2023-04-10T03:31:29.752Z,101136.76
2023-04-10T03:36:32.748Z,101140.17
2023-04-10T03:41:35.649Z,101144.96
2023-04-10T03:46:38.632Z,101150.30
2023-04-10T03:51:41.564Z,101149.91
2023-04-10T03:56:44.463Z,101147.93
2023-04-10T04:01:47.438Z,101148.56
2023-04-10T04:06:50.474Z,101151.52
2023-04-10T04:11:53.381Z,101159.32
2023-04-10T04:16:56.346Z,101158.86
2023-04-10T04:22:00.596Z,101163.81
2023-04-10T04:27:03.833Z,101165.11
2023-04-10T04:32:06.766Z,101173.25
2023-04-10T04:37:09.761Z,101177.19
2023-04-10T04:42:12.955Z,101179.77
2023-04-10T04:47:15.860Z,101178.09
2023-04-10T04:52:18.764Z,101180.61
2023-04-10T04:57:21.877Z,101182.54
2023-04-10T05:02:25.088Z,101194.10
2023-04-10T05:07:28.088Z,101202.98
2023-04-10T05:12:31.402Z,101199.96
2023-04-10T05:17:34.480Z,101201.55
2023-04-10T05:22:37.515Z,101207.29
2023-04-10T05:27:40.527Z,101206.73
2023-04-10T05:32:43.498Z,101210.24
2023-04-10T05:37:46.437Z,101212.29
2023-04-10T05:42:49.344Z,101212.38
2023-04-10T05:47:52.367Z,101216.14
2023-04-10T05:52:55.439Z,101217.09
2023-04-10T05:57:58.469Z,101215.91
2023-04-10T06:03:01.837Z,101223.09
2023-04-10T06:08:05.194Z,101226.66
2023-04-10T06:13:10.577Z,101226.36
2023-04-10T06:18:14.171Z,101221.05
2023-04-10T06:23:17.286Z,101215.52
2023-04-10T06:28:20.409Z,101211.48
2023-04-10T06:33:26.164Z,101207.85
2023-04-10T06:38:29.753Z,101210.45
2023-04-10T06:43:36.953Z,101211.32
2023-04-10T06:48:39.922Z,101216.83
2023-04-10T06:53:43.017Z,101218.65
2023-04-10T06:58:46.121Z,101218.52
2023-04-10T07:03:49.082Z,101218.41
2023-04-10T07:08:52.304Z,101219.71
2023-04-10T07:13:58.683Z,101218.52
2023-04-10T07:19:01.744Z,101220.69
2023-04-10T07:24:04.758Z,101217.92
2023-04-10T07:29:08.044Z,101218.16
2023-04-10T07:34:12.114Z,101212.98
2023-04-10T07:39:15.093Z,101210.58
2023-04-10T07:44:18.772Z,101207.77
2023-04-10T07:49:21.919Z,101208.79
2023-04-10T07:54:24.938Z,101206.91
2023-04-10T07:59:29.055Z,101200.52
2023-04-10T08:04:32.425Z,101195.77
2023-04-10T08:09:35.995Z,101197.36
2023-04-10T08:14:38.991Z,101198.77
2023-04-10T08:19:43.378Z,101193.39
2023-04-10T08:24:46.545Z,101187.58
2023-04-10T08:29:52.153Z,101185.61
2023-04-10T08:34:56.690Z,101184.16
2023-04-10T08:40:04.706Z,101180.72
2023-04-10T08:45:11.453Z,101178.45
2023-04-10T08:50:18.066Z,101182.71
2023-04-10T08:55:21.989Z,101181.94
2023-04-10T09:00:26.081Z,101176.41
2023-04-10T09:05:30.372Z,101168.95
2023-04-10T09:10:33.362Z,101167.23
2023-04-10T09:15:55.690Z,101155.04
2023-04-10T09:21:07.303Z,101151.83
2023-04-10T09:26:23.088Z,101149.91
2023-04-10T09:31:29.790Z,101139.95
2023-04-10T09:36:32.960Z,101139.31
2023-04-10T09:41:48.026Z,101128.81
2023-04-10T09:46:51.589Z,101121.98
2023-04-10T09:51:54.653Z,101113.36
2023-04-10T09:56:58.658Z,101113.02
2023-04-10T10:02:02.737Z,101104.52
2023-04-10T10:07:06.447Z,101091.44
2023-04-10T10:12:11.878Z,101090.46
2023-04-10T10:17:18.641Z,101087.35
2023-04-10T10:22:25.918Z,101073.23
2023-04-10T10:27:35.190Z,101071.42
2023-04-10T10:32:38.406Z,101068.66
2023-04-10T10:37:42.925Z,101067.69
2023-04-10T10:43:01.932Z,101061.33
2023-04-10T10:48:05.050Z,101057.55
2023-04-10T10:53:08.144Z,101051.67
2023-04-10T10:58:11.760Z,101052.77
2023-04-10T11:03:14.811Z,101042.70
2023-04-10T11:08:18.639Z,101041.39
2023-04-10T11:13:21.990Z,101039.27
2023-04-10T11:18:51.156Z,101031.20
2023-04-10T11:23:59.572Z,101022.30
2023-04-10T11:29:03.467Z,101014.89
2023-04-10T11:34:15.896Z,101007.13
2023-04-10T11:39:20.545Z,101002.30
2023-04-10T11:44:39.727Z,100997.27
2023-04-10T11:49:42.936Z,100996.95
2023-04-10T11:54:49.523Z,100994.69
2023-04-10T11:59:52.631Z,100988.58
2023-04-10T12:04:59.568Z,100982.81
2023-04-10T12:10:02.665Z,100980.02
2023-04-10T12:15:29.141Z,100972.99
2023-04-10T12:20:32.306Z,100968.62
2023-04-10T12:25:35.725Z,100965.97
2023-04-10T12:30:45.999Z,100961.81
2023-04-10T12:35:48.937Z,100957.15
2023-04-10T12:40:59.376Z,100952.80
2023-04-10T12:46:03.558Z,100945.52
2023-04-10T12:51:07.252Z,100933.16
2023-04-10T12:56:10.253Z,100930.01
2023-04-10T13:01:14.953Z,100922.52
2023-04-10T13:06:18.323Z,100914.83
2023-04-10T13:11:22.857Z,100909.46
2023-04-10T13:16:26.113Z,100895.52
2023-04-10T13:21:29.792Z,100888.55
2023-04-10T13:26:32.798Z,100883.48
2023-04-10T13:31:35.956Z,100877.90
2023-04-10T13:36:39.285Z,100872.05
2023-04-10T13:41:42.326Z,100863.92
2023-04-10T13:46:45.455Z,100860.76
2023-04-10T13:51:48.583Z,100852.95
2023-04-10T13:56:51.663Z,100847.93
2023-04-10T14:01:54.663Z,100850.04
2023-04-10T14:07:00.641Z,100844.92
2023-04-10T14:12:03.854Z,100834.30
2023-04-10T14:17:06.961Z,100830.69
2023-04-10T14:22:09.867Z,100826.65
2023-04-10T14:27:13.604Z,100821.42
2023-04-10T14:32:16.726Z,100814.69
2023-04-10T14:37:19.804Z,100810.20
2023-04-10T14:42:23.908Z,100803.34
2023-04-10T14:47:27.084Z,100792.13
2023-04-10T14:52:30.254Z,100790.09
2023-04-10T14:57:33.160Z,100789.64
2023-04-10T15:02:36.274Z,100781.34
2023-04-10T15:07:39.589Z,100779.25
2023-04-10T15:12:43.012Z,100777.17
2023-04-10T15:17:46.176Z,100772.91
2023-04-10T15:22:49.112Z,100766.02
2023-04-10T15:27:52.023Z,100761.42
2023-04-10T15:32:55.049Z,100757.67
2023-04-10T15:37:58.240Z,100755.29
2023-04-10T15:43:01.244Z,100748.14
2023-04-10T15:48:05.230Z,100743.98
2023-04-10T15:53:08.275Z,100737.30
2023-04-10T15:58:11.390Z,100732.78
2023-04-10T16:03:14.674Z,100728.25
2023-04-10T16:08:18.016Z,100730.65
2023-04-10T16:13:21.134Z,100725.19
2023-04-10T16:18:24.349Z,100717.98
2023-04-10T16:23:27.342Z,100712.17
2023-04-10T16:28:30.252Z,100704.80
2023-04-10T16:33:33.352Z,100700.98
2023-04-10T16:38:36.459Z,100698.55
2023-04-10T16:43:39.671Z,100695.49
2023-04-10T16:48:42.576Z,100689.88
2023-04-10T16:53:45.582Z,100678.21
2023-04-10T16:58:48.740Z,100677.80
2023-04-10T17:03:52.060Z,100678.44
2023-04-10T17:08:55.351Z,100675.00
2023-04-10T17:13:58.549Z,100670.23
2023-04-10T17:19:01.755Z,100667.88
2023-04-10T17:24:04.871Z,100666.05
2023-04-10T17:29:07.978Z,100667.71
2023-04-10T17:34:11.086Z,100668.34
2023-04-10T17:39:14.077Z,100667.00
2023-04-10T17:44:17.062Z,100668.05
2023-04-10T17:49:21.919Z,100666.02
2023-04-10T17:54:25.261Z,100662.65
2023-04-10T17:59:31.219Z,100667.47
2023-04-10T18:04:34.543Z,100671.56
2023-04-10T18:09:37.989Z,100669.60
2023-04-10T18:14:42.706Z,100668.64
2023-04-10T18:19:45.910Z,100671.70
2023-04-10T18:24:49.580Z,100675.90
2023-04-10T18:29:57.642Z,100679.41
2023-04-10T18:35:00.685Z,100682.86
2023-04-10T18:40:15.512Z,100679.80
2023-04-10T18:45:20.619Z,100682.58
2023-04-10T18:50:23.622Z,100684.89
2023-04-10T18:55:26.547Z,100686.36
2023-04-10T19:00:29.632Z,100682.98
2023-04-10T19:05:32.948Z,100675.18
2023-04-10T19:10:37.719Z,100674.05
2023-04-10T19:15:42.361Z,100672.45
2023-04-10T19:20:48.844Z,100666.05
2023-04-10T19:25:54.931Z,100665.19
2023-04-10T19:30:58.354Z,100659.46
2023-04-10T19:36:01.338Z,100656.98
2023-04-10T19:41:13.629Z,100647.83
2023-04-10T19:46:18.184Z,100640.98
2023-04-10T19:51:21.629Z,100638.86
2023-04-10T19:56:25.458Z,100635.21
2023-04-10T20:01:28.590Z,100637.52
2023-04-10T20:06:32.109Z,100628.39
2023-04-10T20:11:35.169Z,100622.56
2023-04-10T20:16:39.256Z,100612.71
2023-04-10T20:21:42.322Z,100610.56
2023-04-10T20:26:45.895Z,100604.08
2023-04-10T20:31:49.044Z,100596.38
2023-04-10T20:36:52.049Z,100594.45
2023-04-10T20:41:55.050Z,100592.86
2023-04-10T20:46:57.962Z,100590.39
2023-04-10T20:52:01.059Z,100587.02
2023-04-10T20:57:06.141Z,100580.81
2023-04-10T21:02:09.223Z,100574.08
2023-04-10T21:07:12.345Z,100574.65
2023-04-10T21:12:15.342Z,100568.07
2023-04-10T21:17:19.458Z,100566.73
2023-04-10T21:22:22.691Z,100567.45
2023-04-10T21:27:25.692Z,100562.80
2023-04-10T21:32:30.040Z,100557.45
2023-04-10T21:37:33.041Z,100552.61
2023-04-10T21:42:39.584Z,100554.01
2023-04-10T21:47:42.561Z,100548.80
2023-04-10T21:52:45.754Z,100541.48
2023-04-10T21:57:48.753Z,100537.50
2023-04-10T22:02:52.023Z,100535.40
2023-04-10T22:07:55.487Z,100528.63
2023-04-10T22:12:58.584Z,100522.19
2023-04-10T22:18:01.587Z,100520.96
2023-04-10T22:23:05.119Z,100522.34
2023-04-10T22:28:08.118Z,100519.19
2023-04-10T22:33:12.158Z,100509.61
2023-04-10T22:38:15.635Z,100510.27
2023-04-10T22:43:18.581Z,100511.80
2023-04-10T22:48:21.662Z,100500.30
2023-04-10T22:53:24.791Z,100490.54
2023-04-10T22:58:27.897Z,100480.77
2023-04-10T23:03:30.909Z,100475.56
2023-04-10T23:08:33.952Z,100465.81
2023-04-10T23:13:36.814Z,100455.56
2023-04-10T23:18:39.721Z,100444.63
2023-04-10T23:23:42.834Z,100440.92
2023-04-10T23:28:45.741Z,100432.21
2023-04-10T23:33:48.861Z,100422.81
2023-04-10T23:38:52.067Z,100421.58
2023-04-10T23:43:55.168Z,100412.39
2023-04-10T23:48:58.285Z,100399.05
2023-04-10T23:54:01.280Z,100394.87
2023-04-10T23:59:04.499Z,100382.01
